Skip Navigation Links Skip Navigation Links

Current Weather

Mc Kinley National Park, Mc Kinley Park, Alaska

For information only: do not use for flight planning or navigation.
Latest weather
Observation time Tuesday, October 19, 2021 12:56 AM AKDT
Local time Tuesday, October 19, 2021 1:28 AM AKDT
Flight conditions Visual Meteorological Conditions
Winds
Wind direction South (180°)
Wind speed 3 mph
Visibility 10 mi.
Sky condition
Ceiling unlimited
Sky clear
Temperature 19°F
Dewpoint 12°F
Altimeter 29.55 in.Hg
Pressure change last 3 hours0.03 in.Hg
Pressure falling more quickly
Derived measurements
Relative humidity 74%
Wind chill 14°F
Density altitude -559 ft.
Sea-level pressure 29.65 in.Hg
Climate data
Temperature minimum, last 24 hours 19°F
Temperature maximum, last 24 hours 41°F
Remarks
Fully automated report.
Automated weather observing station with precipitation discriminator.
Freezing rain sensor not operating.
METAR PAIN 190856Z AUTO 18003KT 10SM CLR M07/M11 A2955 RMK AO2 SLP041 T10721111 400501072 58009 FZRANO

Settings

Location code

InnerDrive.Weather 4.0.6770.0 Release CLR 4.0.30319.42000
Copyright ©2018 Inner Drive Technology. All rights reserved. Portions Copyright ©1986-2018 David Braverman.

Find weather

Site navigation


Skip Navigation Links

Place info

Page info

PayPal - The safer, easier way to pay online!

Return home.

Copyright ©2021 Inner Drive Technology. Purveyors of fine, hand-crafted computer software. Page printed 2021-10-19T09:28:29 UTC.